sensor_id;sensor_type;location;lat;lon;timestamp;P1;durP1;ratioP1;P2;durP2;ratioP2
38725;SDS011;24474;48.906;8.808;2023-04-06T00:01:29;10.15;;;6.65;;
38725;SDS011;24474;48.906;8.808;2023-04-06T00:03:56;10.82;;;6.50;;
38725;SDS011;24474;48.906;8.808;2023-04-06T00:06:22;11.18;;;7.10;;
38725;SDS011;24474;48.906;8.808;2023-04-06T00:08:49;10.70;;;6.60;;
38725;SDS011;24474;48.906;8.808;2023-04-06T00:11:15;10.25;;;7.18;;
38725;SDS011;24474;48.906;8.808;2023-04-06T00:13:41;11.98;;;7.32;;
38725;SDS011;24474;48.906;8.808;2023-04-06T00:16:07;8.07;;;6.18;;
38725;SDS011;24474;48.906;8.808;2023-04-06T00:18:34;10.07;;;6.60;;
38725;SDS011;24474;48.906;8.808;2023-04-06T00:21:01;10.50;;;7.03;;
38725;SDS011;24474;48.906;8.808;2023-04-06T00:23:27;10.35;;;6.60;;
38725;SDS011;24474;48.906;8.808;2023-04-06T00:25:54;11.32;;;7.35;;
38725;SDS011;24474;48.906;8.808;2023-04-06T00:28:21;11.40;;;7.05;;
38725;SDS011;24474;48.906;8.808;2023-04-06T00:30:51;9.55;;;7.03;;
38725;SDS011;24474;48.906;8.808;2023-04-06T00:33:20;11.27;;;6.78;;
38725;SDS011;24474;48.906;8.808;2023-04-06T00:35:47;12.05;;;6.40;;
38725;SDS011;24474;48.906;8.808;2023-04-06T00:38:14;9.60;;;6.80;;
38725;SDS011;24474;48.906;8.808;2023-04-06T00:40:40;9.27;;;6.97;;
38725;SDS011;24474;48.906;8.808;2023-04-06T00:43:07;8.90;;;6.57;;
38725;SDS011;24474;48.906;8.808;2023-04-06T00:45:34;9.93;;;7.35;;
38725;SDS011;24474;48.906;8.808;2023-04-06T00:48:00;10.43;;;6.88;;
38725;SDS011;24474;48.906;8.808;2023-04-06T00:50:27;12.90;;;7.45;;
38725;SDS011;24474;48.906;8.808;2023-04-06T00:52:55;10.93;;;7.30;;
38725;SDS011;24474;48.906;8.808;2023-04-06T00:55:22;9.90;;;6.72;;
38725;SDS011;24474;48.906;8.808;2023-04-06T00:57:49;10.45;;;7.07;;
38725;SDS011;24474;48.906;8.808;2023-04-06T01:00:16;8.30;;;6.90;;
38725;SDS011;24474;48.906;8.808;2023-04-06T01:02:43;9.43;;;7.00;;
38725;SDS011;24474;48.906;8.808;2023-04-06T01:05:10;9.23;;;7.13;;
38725;SDS011;24474;48.906;8.808;2023-04-06T01:07:37;10.57;;;6.95;;
38725;SDS011;24474;48.906;8.808;2023-04-06T01:10:04;9.73;;;7.32;;
38725;SDS011;24474;48.906;8.808;2023-04-06T01:12:31;9.70;;;7.15;;
38725;SDS011;24474;48.906;8.808;2023-04-06T01:14:58;10.68;;;7.32;;
38725;SDS011;24474;48.906;8.808;2023-04-06T01:17:24;9.77;;;6.97;;
38725;SDS011;24474;48.906;8.808;2023-04-06T01:19:54;10.38;;;7.60;;
38725;SDS011;24474;48.906;8.808;2023-04-06T01:22:21;11.82;;;7.70;;
38725;SDS011;24474;48.906;8.808;2023-04-06T01:24:50;11.50;;;7.25;;
38725;SDS011;24474;48.906;8.808;2023-04-06T01:27:17;11.43;;;6.90;;
38725;SDS011;24474;48.906;8.808;2023-04-06T01:29:44;11.30;;;7.90;;
38725;SDS011;24474;48.906;8.808;2023-04-06T01:32:11;10.10;;;7.75;;
38725;SDS011;24474;48.906;8.808;2023-04-06T01:34:38;9.70;;;7.45;;
38725;SDS011;24474;48.906;8.808;2023-04-06T01:37:05;10.13;;;7.57;;
38725;SDS011;24474;48.906;8.808;2023-04-06T01:39:32;11.20;;;7.57;;
38725;SDS011;24474;48.906;8.808;2023-04-06T01:41:59;10.85;;;7.65;;
38725;SDS011;24474;48.906;8.808;2023-04-06T01:44:24;10.98;;;6.88;;
38725;SDS011;24474;48.906;8.808;2023-04-06T01:46:50;10.27;;;6.95;;
38725;SDS011;24474;48.906;8.808;2023-04-06T01:49:17;10.07;;;7.03;;
38725;SDS011;24474;48.906;8.808;2023-04-06T01:51:42;11.10;;;7.70;;
38725;SDS011;24474;48.906;8.808;2023-04-06T01:54:09;10.57;;;7.07;;
38725;SDS011;24474;48.906;8.808;2023-04-06T01:56:36;11.02;;;7.32;;
38725;SDS011;24474;48.906;8.808;2023-04-06T01:59:02;10.13;;;6.90;;
38725;SDS011;24474;48.906;8.808;2023-04-06T02:01:30;10.02;;;7.07;;
38725;SDS011;24474;48.906;8.808;2023-04-06T02:03:57;11.13;;;7.43;;
38725;SDS011;24474;48.906;8.808;2023-04-06T02:06:24;10.70;;;7.00;;
38725;SDS011;24474;48.906;8.808;2023-04-06T02:08:51;10.45;;;7.68;;
38725;SDS011;24474;48.906;8.808;2023-04-06T02:11:18;14.52;;;8.48;;
38725;SDS011;24474;48.906;8.808;2023-04-06T02:13:44;11.35;;;7.88;;
38725;SDS011;24474;48.906;8.808;2023-04-06T02:16:11;10.77;;;7.57;;
38725;SDS011;24474;48.906;8.808;2023-04-06T02:18:38;9.82;;;6.85;;
38725;SDS011;24474;48.906;8.808;2023-04-06T02:21:03;9.35;;;6.82;;
38725;SDS011;24474;48.906;8.808;2023-04-06T02:23:30;8.35;;;6.50;;
38725;SDS011;24474;48.906;8.808;2023-04-06T02:25:57;11.05;;;6.80;;
38725;SDS011;24474;48.906;8.808;2023-04-06T02:28:22;11.18;;;7.68;;
38725;SDS011;24474;48.906;8.808;2023-04-06T02:30:48;11.45;;;7.75;;
38725;SDS011;24474;48.906;8.808;2023-04-06T02:33:13;10.75;;;7.28;;
38725;SDS011;24474;48.906;8.808;2023-04-06T02:35:40;11.35;;;7.47;;
38725;SDS011;24474;48.906;8.808;2023-04-06T02:38:07;10.18;;;7.40;;
38725;SDS011;24474;48.906;8.808;2023-04-06T02:40:33;9.90;;;7.13;;
38725;SDS011;24474;48.906;8.808;2023-04-06T02:43:00;10.00;;;7.15;;
38725;SDS011;24474;48.906;8.808;2023-04-06T02:45:27;9.13;;;7.07;;
38725;SDS011;24474;48.906;8.808;2023-04-06T02:47:53;8.60;;;6.32;;
38725;SDS011;24474;48.906;8.808;2023-04-06T02:50:18;8.75;;;6.35;;
38725;SDS011;24474;48.906;8.808;2023-04-06T02:52:45;9.60;;;6.45;;
38725;SDS011;24474;48.906;8.808;2023-04-06T02:55:12;9.32;;;6.40;;
38725;SDS011;24474;48.906;8.808;2023-04-06T02:57:39;9.27;;;6.28;;
38725;SDS011;24474;48.906;8.808;2023-04-06T03:00:06;7.93;;;6.45;;
38725;SDS011;24474;48.906;8.808;2023-04-06T03:02:32;8.13;;;5.70;;
38725;SDS011;24474;48.906;8.808;2023-04-06T03:05:00;8.10;;;5.63;;
38725;SDS011;24474;48.906;8.808;2023-04-06T03:07:29;9.88;;;5.78;;
38725;SDS011;24474;48.906;8.808;2023-04-06T03:09:56;8.02;;;5.75;;
38725;SDS011;24474;48.906;8.808;2023-04-06T03:12:22;8.05;;;5.93;;
38725;SDS011;24474;48.906;8.808;2023-04-06T03:14:48;10.50;;;5.53;;
38725;SDS011;24474;48.906;8.808;2023-04-06T03:17:13;7.53;;;5.32;;
38725;SDS011;24474;48.906;8.808;2023-04-06T03:19:39;8.85;;;6.07;;
38725;SDS011;24474;48.906;8.808;2023-04-06T03:22:06;8.27;;;6.25;;
38725;SDS011;24474;48.906;8.808;2023-04-06T03:24:33;10.18;;;7.35;;
38725;SDS011;24474;48.906;8.808;2023-04-06T03:27:00;9.45;;;6.88;;
38725;SDS011;24474;48.906;8.808;2023-04-06T03:29:27;9.43;;;6.82;;
38725;SDS011;24474;48.906;8.808;2023-04-06T03:31:55;11.00;;;7.25;;
38725;SDS011;24474;48.906;8.808;2023-04-06T03:34:21;12.18;;;7.55;;
38725;SDS011;24474;48.906;8.808;2023-04-06T03:36:48;12.25;;;7.95;;
38725;SDS011;24474;48.906;8.808;2023-04-06T03:39:15;12.38;;;8.23;;
38725;SDS011;24474;48.906;8.808;2023-04-06T03:41:42;11.65;;;7.70;;
38725;SDS011;24474;48.906;8.808;2023-04-06T03:44:10;10.57;;;7.82;;
38725;SDS011;24474;48.906;8.808;2023-04-06T03:46:37;10.43;;;7.70;;
38725;SDS011;24474;48.906;8.808;2023-04-06T03:49:03;12.07;;;7.32;;
38725;SDS011;24474;48.906;8.808;2023-04-06T03:51:30;12.30;;;7.47;;
38725;SDS011;24474;48.906;8.808;2023-04-06T03:53:57;8.75;;;6.80;;
38725;SDS011;24474;48.906;8.808;2023-04-06T03:56:24;11.43;;;7.22;;
38725;SDS011;24474;48.906;8.808;2023-04-06T03:58:50;10.13;;;7.25;;
38725;SDS011;24474;48.906;8.808;2023-04-06T04:01:18;8.82;;;6.95;;
38725;SDS011;24474;48.906;8.808;2023-04-06T04:03:44;11.00;;;7.57;;
38725;SDS011;24474;48.906;8.808;2023-04-06T04:06:11;11.15;;;7.75;;
38725;SDS011;24474;48.906;8.808;2023-04-06T04:08:38;11.07;;;7.90;;
38725;SDS011;24474;48.906;8.808;2023-04-06T04:11:04;10.98;;;8.25;;
38725;SDS011;24474;48.906;8.808;2023-04-06T04:13:30;11.95;;;7.60;;
38725;SDS011;24474;48.906;8.808;2023-04-06T04:15:58;10.85;;;7.32;;
38725;SDS011;24474;48.906;8.808;2023-04-06T04:18:25;11.80;;;7.75;;
38725;SDS011;24474;48.906;8.808;2023-04-06T04:20:53;10.02;;;7.55;;
38725;SDS011;24474;48.906;8.808;2023-04-06T04:23:19;9.88;;;7.43;;
38725;SDS011;24474;48.906;8.808;2023-04-06T04:25:46;10.20;;;7.53;;
38725;SDS011;24474;48.906;8.808;2023-04-06T04:28:13;12.07;;;7.97;;
38725;SDS011;24474;48.906;8.808;2023-04-06T04:30:39;11.93;;;8.27;;
38725;SDS011;24474;48.906;8.808;2023-04-06T04:33:05;11.85;;;8.68;;
38725;SDS011;24474;48.906;8.808;2023-04-06T04:35:32;13.73;;;8.82;;
38725;SDS011;24474;48.906;8.808;2023-04-06T04:37:58;11.15;;;8.05;;
38725;SDS011;24474;48.906;8.808;2023-04-06T04:40:25;10.70;;;8.18;;
38725;SDS011;24474;48.906;8.808;2023-04-06T04:42:52;15.23;;;8.77;;
38725;SDS011;24474;48.906;8.808;2023-04-06T04:45:18;12.80;;;8.98;;
38725;SDS011;24474;48.906;8.808;2023-04-06T04:47:45;11.32;;;8.02;;
38725;SDS011;24474;48.906;8.808;2023-04-06T04:50:12;10.80;;;7.38;;
38725;SDS011;24474;48.906;8.808;2023-04-06T04:52:38;11.35;;;8.18;;
38725;SDS011;24474;48.906;8.808;2023-04-06T04:55:04;10.55;;;7.50;;
38725;SDS011;24474;48.906;8.808;2023-04-06T04:57:31;9.85;;;7.32;;
38725;SDS011;24474;48.906;8.808;2023-04-06T04:59:58;12.27;;;7.55;;
38725;SDS011;24474;48.906;8.808;2023-04-06T05:02:25;10.23;;;6.90;;
38725;SDS011;24474;48.906;8.808;2023-04-06T05:04:52;14.00;;;8.23;;
38725;SDS011;24474;48.906;8.808;2023-04-06T05:07:19;24.98;;;11.02;;
38725;SDS011;24474;48.906;8.808;2023-04-06T05:09:46;14.43;;;9.98;;
38725;SDS011;24474;48.906;8.808;2023-04-06T05:12:15;19.27;;;10.25;;
38725;SDS011;24474;48.906;8.808;2023-04-06T05:14:42;16.77;;;10.13;;
38725;SDS011;24474;48.906;8.808;2023-04-06T05:17:10;14.77;;;9.32;;
38725;SDS011;24474;48.906;8.808;2023-04-06T05:19:45;14.40;;;8.73;;
38725;SDS011;24474;48.906;8.808;2023-04-06T05:22:15;15.27;;;8.55;;
38725;SDS011;24474;48.906;8.808;2023-04-06T05:24:43;18.92;;;11.18;;
38725;SDS011;24474;48.906;8.808;2023-04-06T05:27:10;22.80;;;12.88;;
38725;SDS011;24474;48.906;8.808;2023-04-06T05:29:37;17.15;;;11.07;;
38725;SDS011;24474;48.906;8.808;2023-04-06T05:32:03;20.52;;;12.23;;
38725;SDS011;24474;48.906;8.808;2023-04-06T05:34:31;25.60;;;14.15;;
38725;SDS011;24474;48.906;8.808;2023-04-06T05:37:01;71.25;;;31.15;;
38725;SDS011;24474;48.906;8.808;2023-04-06T05:39:27;64.38;;;28.52;;
38725;SDS011;24474;48.906;8.808;2023-04-06T05:41:54;88.82;;;33.25;;
38725;SDS011;24474;48.906;8.808;2023-04-06T05:44:21;77.70;;;31.05;;
38725;SDS011;24474;48.906;8.808;2023-04-06T05:46:46;55.72;;;22.98;;
38725;SDS011;24474;48.906;8.808;2023-04-06T05:49:12;57.88;;;22.50;;
38725;SDS011;24474;48.906;8.808;2023-04-06T05:51:39;56.83;;;21.85;;
38725;SDS011;24474;48.906;8.808;2023-04-06T05:54:09;39.00;;;16.65;;
38725;SDS011;24474;48.906;8.808;2023-04-06T05:56:36;32.20;;;15.27;;
38725;SDS011;24474;48.906;8.808;2023-04-06T05:59:03;36.28;;;16.63;;
38725;SDS011;24474;48.906;8.808;2023-04-06T06:01:29;31.15;;;15.88;;
38725;SDS011;24474;48.906;8.808;2023-04-06T06:03:55;28.80;;;13.73;;
38725;SDS011;24474;48.906;8.808;2023-04-06T06:06:22;26.75;;;14.05;;
38725;SDS011;24474;48.906;8.808;2023-04-06T06:08:49;23.08;;;13.77;;
38725;SDS011;24474;48.906;8.808;2023-04-06T06:11:15;23.30;;;13.40;;
38725;SDS011;24474;48.906;8.808;2023-04-06T06:13:42;26.17;;;15.27;;
38725;SDS011;24474;48.906;8.808;2023-04-06T06:16:09;34.45;;;16.58;;
38725;SDS011;24474;48.906;8.808;2023-04-06T06:18:36;27.85;;;16.58;;
38725;SDS011;24474;48.906;8.808;2023-04-06T06:21:01;31.30;;;18.77;;
38725;SDS011;24474;48.906;8.808;2023-04-06T06:23:28;28.80;;;18.67;;
38725;SDS011;24474;48.906;8.808;2023-04-06T06:25:53;30.13;;;17.45;;
38725;SDS011;24474;48.906;8.808;2023-04-06T06:28:21;20.92;;;15.18;;
38725;SDS011;24474;48.906;8.808;2023-04-06T06:30:47;18.23;;;13.00;;
38725;SDS011;24474;48.906;8.808;2023-04-06T06:33:13;19.05;;;11.98;;
38725;SDS011;24474;48.906;8.808;2023-04-06T06:35:38;20.42;;;11.38;;
38725;SDS011;24474;48.906;8.808;2023-04-06T06:38:04;18.35;;;11.77;;
38725;SDS011;24474;48.906;8.808;2023-04-06T06:40:30;16.92;;;11.68;;
38725;SDS011;24474;48.906;8.808;2023-04-06T06:42:56;18.52;;;12.00;;
38725;SDS011;24474;48.906;8.808;2023-04-06T06:45:21;17.10;;;10.57;;
38725;SDS011;24474;48.906;8.808;2023-04-06T06:47:47;13.63;;;9.98;;
38725;SDS011;24474;48.906;8.808;2023-04-06T06:50:13;14.02;;;9.27;;
38725;SDS011;24474;48.906;8.808;2023-04-06T06:52:39;14.55;;;9.73;;
38725;SDS011;24474;48.906;8.808;2023-04-06T06:55:05;16.40;;;9.77;;
38725;SDS011;24474;48.906;8.808;2023-04-06T06:57:31;24.92;;;10.52;;
38725;SDS011;24474;48.906;8.808;2023-04-06T06:59:57;19.10;;;10.35;;
38725;SDS011;24474;48.906;8.808;2023-04-06T07:02:24;15.07;;;9.60;;
38725;SDS011;24474;48.906;8.808;2023-04-06T07:04:50;14.98;;;10.23;;
38725;SDS011;24474;48.906;8.808;2023-04-06T07:07:16;16.90;;;9.95;;
38725;SDS011;24474;48.906;8.808;2023-04-06T07:09:41;15.90;;;9.85;;
38725;SDS011;24474;48.906;8.808;2023-04-06T07:12:07;15.75;;;10.15;;
38725;SDS011;24474;48.906;8.808;2023-04-06T07:14:33;14.40;;;9.60;;
38725;SDS011;24474;48.906;8.808;2023-04-06T07:16:58;18.52;;;10.45;;
38725;SDS011;24474;48.906;8.808;2023-04-06T07:19:24;14.77;;;9.90;;
38725;SDS011;24474;48.906;8.808;2023-04-06T07:21:50;15.70;;;10.27;;
38725;SDS011;24474;48.906;8.808;2023-04-06T07:24:15;28.65;;;18.38;;
38725;SDS011;24474;48.906;8.808;2023-04-06T07:26:41;27.60;;;18.27;;
38725;SDS011;24474;48.906;8.808;2023-04-06T07:29:08;21.02;;;13.32;;
38725;SDS011;24474;48.906;8.808;2023-04-06T07:31:33;21.77;;;12.55;;
38725;SDS011;24474;48.906;8.808;2023-04-06T07:34:02;22.75;;;11.68;;
38725;SDS011;24474;48.906;8.808;2023-04-06T07:36:28;16.20;;;10.15;;
38725;SDS011;24474;48.906;8.808;2023-04-06T07:38:53;17.50;;;9.50;;
38725;SDS011;24474;48.906;8.808;2023-04-06T07:41:19;19.95;;;9.88;;
38725;SDS011;24474;48.906;8.808;2023-04-06T07:43:46;13.38;;;8.70;;
38725;SDS011;24474;48.906;8.808;2023-04-06T07:46:12;10.88;;;8.52;;
38725;SDS011;24474;48.906;8.808;2023-04-06T07:48:39;11.57;;;7.65;;
38725;SDS011;24474;48.906;8.808;2023-04-06T07:51:06;11.10;;;7.45;;
38725;SDS011;24474;48.906;8.808;2023-04-06T07:53:33;11.52;;;7.57;;
38725;SDS011;24474;48.906;8.808;2023-04-06T07:56:00;12.35;;;7.55;;
38725;SDS011;24474;48.906;8.808;2023-04-06T07:58:26;11.95;;;6.90;;
38725;SDS011;24474;48.906;8.808;2023-04-06T08:00:53;10.10;;;6.85;;
38725;SDS011;24474;48.906;8.808;2023-04-06T08:03:21;9.07;;;6.57;;
38725;SDS011;24474;48.906;8.808;2023-04-06T08:05:51;9.35;;;6.50;;
38725;SDS011;24474;48.906;8.808;2023-04-06T08:08:19;9.57;;;6.53;;
38725;SDS011;24474;48.906;8.808;2023-04-06T08:10:47;9.93;;;6.35;;
38725;SDS011;24474;48.906;8.808;2023-04-06T08:13:14;9.10;;;6.13;;
38725;SDS011;24474;48.906;8.808;2023-04-06T08:15:42;9.18;;;5.93;;
38725;SDS011;24474;48.906;8.808;2023-04-06T08:18:08;8.57;;;6.38;;
38725;SDS011;24474;48.906;8.808;2023-04-06T08:20:34;9.82;;;6.45;;
38725;SDS011;24474;48.906;8.808;2023-04-06T08:23:01;9.02;;;6.18;;
38725;SDS011;24474;48.906;8.808;2023-04-06T08:25:29;7.45;;;5.30;;
38725;SDS011;24474;48.906;8.808;2023-04-06T08:27:58;8.32;;;5.50;;
38725;SDS011;24474;48.906;8.808;2023-04-06T08:30:24;7.85;;;5.10;;
38725;SDS011;24474;48.906;8.808;2023-04-06T08:32:50;9.00;;;5.75;;
38725;SDS011;24474;48.906;8.808;2023-04-06T08:35:16;10.63;;;5.55;;
38725;SDS011;24474;48.906;8.808;2023-04-06T08:37:43;9.98;;;5.38;;
38725;SDS011;24474;48.906;8.808;2023-04-06T08:40:11;9.65;;;5.95;;
38725;SDS011;24474;48.906;8.808;2023-04-06T08:42:39;7.85;;;5.88;;
38725;SDS011;24474;48.906;8.808;2023-04-06T08:45:09;8.53;;;6.13;;
38725;SDS011;24474;48.906;8.808;2023-04-06T08:47:38;12.50;;;6.40;;
38725;SDS011;24474;48.906;8.808;2023-04-06T08:50:07;9.80;;;5.95;;
38725;SDS011;24474;48.906;8.808;2023-04-06T08:52:34;11.77;;;6.05;;
38725;SDS011;24474;48.906;8.808;2023-04-06T08:55:00;12.75;;;6.10;;
38725;SDS011;24474;48.906;8.808;2023-04-06T08:57:27;8.35;;;5.97;;
38725;SDS011;24474;48.906;8.808;2023-04-06T08:59:54;10.50;;;5.90;;
38725;SDS011;24474;48.906;8.808;2023-04-06T09:02:21;8.70;;;5.65;;
38725;SDS011;24474;48.906;8.808;2023-04-06T09:04:48;10.07;;;6.32;;
38725;SDS011;24474;48.906;8.808;2023-04-06T09:07:18;8.43;;;5.80;;
38725;SDS011;24474;48.906;8.808;2023-04-06T09:09:45;7.78;;;5.88;;
38725;SDS011;24474;48.906;8.808;2023-04-06T09:12:27;9.13;;;6.10;;
38725;SDS011;24474;48.906;8.808;2023-04-06T09:14:56;8.38;;;5.93;;
38725;SDS011;24474;48.906;8.808;2023-04-06T09:17:30;6.93;;;5.55;;
38725;SDS011;24474;48.906;8.808;2023-04-06T09:20:06;10.18;;;6.25;;
38725;SDS011;24474;48.906;8.808;2023-04-06T09:22:35;8.43;;;6.03;;
38725;SDS011;24474;48.906;8.808;2023-04-06T09:25:03;7.05;;;5.63;;
38725;SDS011;24474;48.906;8.808;2023-04-06T09:27:30;8.52;;;5.70;;
38725;SDS011;24474;48.906;8.808;2023-04-06T09:30:07;8.65;;;5.57;;
38725;SDS011;24474;48.906;8.808;2023-04-06T09:32:51;8.20;;;5.85;;
38725;SDS011;24474;48.906;8.808;2023-04-06T09:35:19;7.18;;;5.45;;
38725;SDS011;24474;48.906;8.808;2023-04-06T09:37:50;9.88;;;6.03;;
38725;SDS011;24474;48.906;8.808;2023-04-06T09:40:23;10.23;;;6.45;;
38725;SDS011;24474;48.906;8.808;2023-04-06T09:42:49;9.52;;;6.03;;
38725;SDS011;24474;48.906;8.808;2023-04-06T09:45:23;8.65;;;6.00;;
38725;SDS011;24474;48.906;8.808;2023-04-06T09:47:50;9.65;;;6.18;;
38725;SDS011;24474;48.906;8.808;2023-04-06T09:50:19;8.25;;;6.00;;
38725;SDS011;24474;48.906;8.808;2023-04-06T09:52:52;8.77;;;5.88;;
38725;SDS011;24474;48.906;8.808;2023-04-06T09:55:36;10.00;;;6.85;;
38725;SDS011;24474;48.906;8.808;2023-04-06T09:58:12;8.93;;;6.30;;
38725;SDS011;24474;48.906;8.808;2023-04-06T10:01:03;11.10;;;6.30;;
38725;SDS011;24474;48.906;8.808;2023-04-06T10:06:11;9.75;;;6.28;;
38725;SDS011;24474;48.906;8.808;2023-04-06T10:08:43;9.13;;;5.97;;
38725;SDS011;24474;48.906;8.808;2023-04-06T10:11:14;11.13;;;6.18;;
38725;SDS011;24474;48.906;8.808;2023-04-06T10:13:42;10.10;;;7.07;;
38725;SDS011;24474;48.906;8.808;2023-04-06T10:16:10;9.15;;;6.40;;
38725;SDS011;24474;48.906;8.808;2023-04-06T10:18:39;9.98;;;7.70;;
38725;SDS011;24474;48.906;8.808;2023-04-06T10:26:38;7.88;;;6.35;;
38725;SDS011;24474;48.906;8.808;2023-04-06T10:29:06;8.57;;;5.68;;
38725;SDS011;24474;48.906;8.808;2023-04-06T10:31:32;10.63;;;6.43;;
38725;SDS011;24474;48.906;8.808;2023-04-06T10:34:00;8.90;;;6.03;;
38725;SDS011;24474;48.906;8.808;2023-04-06T10:36:27;9.82;;;6.10;;
38725;SDS011;24474;48.906;8.808;2023-04-06T10:39:05;9.15;;;6.63;;
38725;SDS011;24474;48.906;8.808;2023-04-06T10:41:41;9.82;;;7.13;;
38725;SDS011;24474;48.906;8.808;2023-04-06T10:44:08;9.38;;;6.47;;
38725;SDS011;24474;48.906;8.808;2023-04-06T10:46:57;13.55;;;5.70;;
38725;SDS011;24474;48.906;8.808;2023-04-06T10:49:27;9.48;;;6.10;;
38725;SDS011;24474;48.906;8.808;2023-04-06T10:51:55;10.88;;;6.00;;
38725;SDS011;24474;48.906;8.808;2023-04-06T10:54:23;8.05;;;6.10;;
38725;SDS011;24474;48.906;8.808;2023-04-06T10:56:52;8.18;;;5.90;;
38725;SDS011;24474;48.906;8.808;2023-04-06T10:59:19;9.63;;;6.47;;
38725;SDS011;24474;48.906;8.808;2023-04-06T11:01:47;10.90;;;6.70;;
38725;SDS011;24474;48.906;8.808;2023-04-06T11:04:16;8.65;;;5.82;;
38725;SDS011;24474;48.906;8.808;2023-04-06T11:06:47;9.25;;;6.38;;
38725;SDS011;24474;48.906;8.808;2023-04-06T11:09:28;7.85;;;6.00;;
38725;SDS011;24474;48.906;8.808;2023-04-06T11:11:57;8.57;;;6.45;;
38725;SDS011;24474;48.906;8.808;2023-04-06T11:14:24;9.07;;;6.30;;
38725;SDS011;24474;48.906;8.808;2023-04-06T11:16:51;8.88;;;6.38;;
38725;SDS011;24474;48.906;8.808;2023-04-06T11:19:17;9.75;;;7.10;;
38725;SDS011;24474;48.906;8.808;2023-04-06T11:21:45;8.65;;;6.70;;
38725;SDS011;24474;48.906;8.808;2023-04-06T11:29:18;9.02;;;7.00;;
38725;SDS011;24474;48.906;8.808;2023-04-06T11:31:46;7.97;;;6.55;;
38725;SDS011;24474;48.906;8.808;2023-04-06T11:34:23;8.88;;;6.32;;
38725;SDS011;24474;48.906;8.808;2023-04-06T11:37:00;10.43;;;7.03;;
38725;SDS011;24474;48.906;8.808;2023-04-06T11:39:29;8.63;;;6.30;;
38725;SDS011;24474;48.906;8.808;2023-04-06T11:41:59;10.48;;;6.70;;
38725;SDS011;24474;48.906;8.808;2023-04-06T11:44:38;10.68;;;6.50;;
38725;SDS011;24474;48.906;8.808;2023-04-06T11:49:37;9.55;;;6.50;;
38725;SDS011;24474;48.906;8.808;2023-04-06T11:52:14;8.95;;;5.97;;
38725;SDS011;24474;48.906;8.808;2023-04-06T11:54:53;9.80;;;7.13;;
38725;SDS011;24474;48.906;8.808;2023-04-06T11:57:22;7.80;;;6.25;;
38725;SDS011;24474;48.906;8.808;2023-04-06T11:59:54;11.43;;;6.95;;
38725;SDS011;24474;48.906;8.808;2023-04-06T12:02:20;11.65;;;6.30;;
38725;SDS011;24474;48.906;8.808;2023-04-06T12:04:47;8.10;;;6.60;;
38725;SDS011;24474;48.906;8.808;2023-04-06T12:07:14;8.15;;;5.85;;
38725;SDS011;24474;48.906;8.808;2023-04-06T12:09:40;8.55;;;6.03;;
38725;SDS011;24474;48.906;8.808;2023-04-06T12:12:07;9.43;;;6.20;;
38725;SDS011;24474;48.906;8.808;2023-04-06T12:14:34;9.52;;;5.90;;
38725;SDS011;24474;48.906;8.808;2023-04-06T12:17:01;9.07;;;6.07;;
38725;SDS011;24474;48.906;8.808;2023-04-06T12:19:27;8.95;;;6.38;;
38725;SDS011;24474;48.906;8.808;2023-04-06T12:21:54;9.02;;;6.30;;
38725;SDS011;24474;48.906;8.808;2023-04-06T12:24:20;10.88;;;6.18;;
38725;SDS011;24474;48.906;8.808;2023-04-06T12:26:46;9.00;;;6.22;;
38725;SDS011;24474;48.906;8.808;2023-04-06T12:29:12;11.00;;;6.82;;
38725;SDS011;24474;48.906;8.808;2023-04-06T12:31:39;10.23;;;6.65;;
38725;SDS011;24474;48.906;8.808;2023-04-06T12:34:10;8.65;;;6.50;;
38725;SDS011;24474;48.906;8.808;2023-04-06T12:36:36;8.60;;;5.78;;
38725;SDS011;24474;48.906;8.808;2023-04-06T12:39:04;9.18;;;6.38;;
38725;SDS011;24474;48.906;8.808;2023-04-06T12:41:31;7.22;;;5.90;;
38725;SDS011;24474;48.906;8.808;2023-04-06T12:43:59;8.45;;;6.32;;
38725;SDS011;24474;48.906;8.808;2023-04-06T12:46:25;9.48;;;6.68;;
38725;SDS011;24474;48.906;8.808;2023-04-06T12:48:52;9.55;;;6.43;;
38725;SDS011;24474;48.906;8.808;2023-04-06T12:51:23;10.63;;;6.70;;
38725;SDS011;24474;48.906;8.808;2023-04-06T12:53:50;10.38;;;6.57;;
38725;SDS011;24474;48.906;8.808;2023-04-06T12:56:16;10.32;;;8.02;;
38725;SDS011;24474;48.906;8.808;2023-04-06T12:58:43;13.77;;;8.52;;
38725;SDS011;24474;48.906;8.808;2023-04-06T13:01:14;12.77;;;8.27;;
38725;SDS011;24474;48.906;8.808;2023-04-06T13:03:42;12.10;;;8.43;;
38725;SDS011;24474;48.906;8.808;2023-04-06T13:06:10;10.02;;;7.75;;
38725;SDS011;24474;48.906;8.808;2023-04-06T13:08:37;11.07;;;8.15;;
38725;SDS011;24474;48.906;8.808;2023-04-06T13:11:06;11.18;;;7.85;;
38725;SDS011;24474;48.906;8.808;2023-04-06T13:13:33;11.80;;;7.50;;
38725;SDS011;24474;48.906;8.808;2023-04-06T13:16:05;10.60;;;6.43;;
38725;SDS011;24474;48.906;8.808;2023-04-06T13:18:34;10.70;;;7.03;;
38725;SDS011;24474;48.906;8.808;2023-04-06T13:21:00;9.50;;;7.25;;
38725;SDS011;24474;48.906;8.808;2023-04-06T13:23:27;12.00;;;7.57;;
38725;SDS011;24474;48.906;8.808;2023-04-06T13:25:56;9.63;;;7.60;;
38725;SDS011;24474;48.906;8.808;2023-04-06T13:28:27;8.98;;;6.82;;
38725;SDS011;24474;48.906;8.808;2023-04-06T13:30:54;10.40;;;6.78;;
38725;SDS011;24474;48.906;8.808;2023-04-06T13:33:21;11.63;;;7.15;;
38725;SDS011;24474;48.906;8.808;2023-04-06T13:35:49;12.43;;;7.65;;
38725;SDS011;24474;48.906;8.808;2023-04-06T13:38:16;10.02;;;6.88;;
38725;SDS011;24474;48.906;8.808;2023-04-06T13:40:43;8.27;;;6.32;;
38725;SDS011;24474;48.906;8.808;2023-04-06T13:43:10;8.80;;;6.43;;
38725;SDS011;24474;48.906;8.808;2023-04-06T13:45:37;10.32;;;6.80;;
38725;SDS011;24474;48.906;8.808;2023-04-06T13:48:04;10.30;;;7.25;;
38725;SDS011;24474;48.906;8.808;2023-04-06T13:50:32;11.23;;;6.03;;
38725;SDS011;24474;48.906;8.808;2023-04-06T13:53:00;9.93;;;6.00;;
38725;SDS011;24474;48.906;8.808;2023-04-06T13:55:26;10.27;;;6.20;;
38725;SDS011;24474;48.906;8.808;2023-04-06T13:57:52;12.85;;;5.65;;
38725;SDS011;24474;48.906;8.808;2023-04-06T14:00:19;9.38;;;7.20;;
38725;SDS011;24474;48.906;8.808;2023-04-06T14:02:45;9.68;;;7.20;;
38725;SDS011;24474;48.906;8.808;2023-04-06T14:05:11;13.10;;;7.20;;
38725;SDS011;24474;48.906;8.808;2023-04-06T14:07:37;9.40;;;6.40;;
38725;SDS011;24474;48.906;8.808;2023-04-06T14:10:02;8.38;;;5.88;;
38725;SDS011;24474;48.906;8.808;2023-04-06T14:12:29;7.90;;;5.97;;
38725;SDS011;24474;48.906;8.808;2023-04-06T14:14:57;8.07;;;5.82;;
38725;SDS011;24474;48.906;8.808;2023-04-06T14:17:24;9.63;;;6.32;;
38725;SDS011;24474;48.906;8.808;2023-04-06T14:19:50;8.63;;;5.40;;
38725;SDS011;24474;48.906;8.808;2023-04-06T14:22:19;8.23;;;5.75;;
38725;SDS011;24474;48.906;8.808;2023-04-06T14:24:46;8.02;;;5.68;;
38725;SDS011;24474;48.906;8.808;2023-04-06T14:27:11;7.63;;;5.47;;
38725;SDS011;24474;48.906;8.808;2023-04-06T14:29:38;9.70;;;6.15;;
38725;SDS011;24474;48.906;8.808;2023-04-06T14:32:05;9.68;;;6.32;;
38725;SDS011;24474;48.906;8.808;2023-04-06T14:34:31;9.25;;;5.75;;
38725;SDS011;24474;48.906;8.808;2023-04-06T14:36:57;8.35;;;5.55;;
38725;SDS011;24474;48.906;8.808;2023-04-06T14:39:25;8.75;;;6.13;;
38725;SDS011;24474;48.906;8.808;2023-04-06T14:41:51;9.32;;;6.88;;
38725;SDS011;24474;48.906;8.808;2023-04-06T14:44:18;11.88;;;7.65;;
38725;SDS011;24474;48.906;8.808;2023-04-06T14:46:45;9.13;;;6.10;;
38725;SDS011;24474;48.906;8.808;2023-04-06T14:49:12;10.23;;;5.95;;
38725;SDS011;24474;48.906;8.808;2023-04-06T14:51:38;8.02;;;5.53;;
38725;SDS011;24474;48.906;8.808;2023-04-06T14:54:05;9.18;;;5.65;;
38725;SDS011;24474;48.906;8.808;2023-04-06T14:56:35;10.30;;;5.82;;